createdAt,value
2022-08-23T00:02:10.124Z,4.07
2022-08-23T00:04:56.883Z,3.83
2022-08-23T00:07:43.732Z,3.85
2022-08-23T00:10:15.891Z,4.38
2022-08-23T00:12:46.346Z,4.28
2022-08-23T00:17:43.926Z,4.27
2022-08-23T00:20:18.221Z,3.58
2022-08-23T00:22:45.902Z,4.25
2022-08-23T00:25:15.579Z,3.67
2022-08-23T00:27:43.619Z,4.47
2022-08-23T00:30:14.185Z,3.63
2022-08-23T00:32:42.687Z,4.05
2022-08-23T00:35:12.869Z,3.75
2022-08-23T00:38:31.957Z,4.45
2022-08-23T00:40:40.497Z,4.30
2022-08-23T00:43:32.999Z,4.32
2022-08-23T00:46:54.162Z,4.70
2022-08-23T00:49:22.639Z,4.30
2022-08-23T00:52:02.581Z,4.20
2022-08-23T00:54:31.234Z,4.90
2022-08-23T00:57:03.646Z,5.22
2022-08-23T00:59:32.020Z,4.80
2022-08-23T01:02:01.215Z,5.82
2022-08-23T01:04:36.882Z,4.07
2022-08-23T01:07:14.039Z,4.28
2022-08-23T01:09:44.904Z,4.32
2022-08-23T01:12:32.963Z,4.75
2022-08-23T01:15:35.531Z,4.75
2022-08-23T01:18:16.900Z,4.18
2022-08-23T01:20:52.402Z,4.85
2022-08-23T01:23:37.321Z,4.25
2022-08-23T01:26:05.818Z,4.63
2022-08-23T01:28:34.331Z,3.92
2022-08-23T01:31:02.637Z,4.40
2022-08-23T01:33:35.992Z,4.68
2022-08-23T01:36:10.945Z,5.00
2022-08-23T01:38:39.271Z,4.63
2022-08-23T01:41:07.094Z,4.90
2022-08-23T01:43:34.956Z,4.28
2022-08-23T01:46:18.137Z,4.35
2022-08-23T01:48:48.267Z,3.97
2022-08-23T01:53:49.484Z,5.80
2022-08-23T01:56:28.076Z,6.55
2022-08-23T01:59:10.719Z,8.20
2022-08-23T02:01:43.864Z,11.10
2022-08-23T02:04:11.273Z,7.80
2022-08-23T02:06:39.189Z,9.02
2022-08-23T02:09:17.194Z,10.32
2022-08-23T02:11:47.581Z,10.57
2022-08-23T02:14:20.658Z,8.57
2022-08-23T02:17:03.887Z,9.45
2022-08-23T02:19:36.767Z,12.10
2022-08-23T02:22:07.626Z,11.57
2022-08-23T02:24:39.029Z,11.07
2022-08-23T02:27:06.930Z,11.43
2022-08-23T02:29:40.692Z,13.57
2022-08-23T02:32:14.897Z,10.40
2022-08-23T02:34:43.716Z,10.93
2022-08-23T02:37:14.013Z,14.00
2022-08-23T02:39:42.638Z,13.02
2022-08-23T02:42:11.613Z,11.55
2022-08-23T02:44:42.367Z,11.40
2022-08-23T02:47:11.985Z,11.55
2022-08-23T02:49:42.641Z,12.50
2022-08-23T02:52:10.007Z,11.70
2022-08-23T02:54:37.466Z,13.45
2022-08-23T02:57:05.587Z,13.25
2022-08-23T02:59:33.145Z,12.90
2022-08-23T03:02:00.627Z,13.95
2022-08-23T03:04:32.997Z,13.00
2022-08-23T03:07:00.566Z,11.32
2022-08-23T03:09:28.301Z,12.93
2022-08-23T03:11:55.775Z,12.32
2022-08-23T03:14:24.792Z,12.05
2022-08-23T03:16:52.646Z,13.57
2022-08-23T03:19:20.228Z,12.68
2022-08-23T03:21:48.231Z,12.80
2022-08-23T03:24:17.945Z,12.77
2022-08-23T03:26:46.312Z,11.75
2022-08-23T03:29:15.966Z,11.82
2022-08-23T03:31:59.813Z,11.30
2022-08-23T03:34:28.535Z,10.50
2022-08-23T03:36:56.369Z,10.52
2022-08-23T03:39:24.207Z,10.93
2022-08-23T03:41:52.377Z,12.52
2022-08-23T03:44:20.013Z,12.30
2022-08-23T03:46:48.453Z,11.80
2022-08-23T03:49:15.758Z,12.35
2022-08-23T03:51:52.507Z,11.50
2022-08-23T03:54:20.739Z,10.52
2022-08-23T03:57:02.943Z,10.75
2022-08-23T03:59:36.978Z,11.07
2022-08-23T04:02:08.151Z,11.60
2022-08-23T04:04:35.732Z,11.48
2022-08-23T04:07:23.246Z,10.85
2022-08-23T04:09:55.340Z,10.57
2022-08-23T04:12:25.413Z,9.77
2022-08-23T04:14:53.791Z,10.05
2022-08-23T04:17:22.507Z,11.35
2022-08-23T04:19:52.372Z,11.02
2022-08-23T04:22:20.919Z,9.90
2022-08-23T04:24:49.185Z,9.15
2022-08-23T04:27:17.404Z,11.60
2022-08-23T04:29:46.496Z,11.23
2022-08-23T04:32:16.922Z,11.07
2022-08-23T04:34:58.373Z,11.50
2022-08-23T04:37:25.925Z,12.23
2022-08-23T04:40:12.141Z,12.82
2022-08-23T04:42:42.714Z,11.02
2022-08-23T04:45:11.758Z,12.45
2022-08-23T04:47:44.591Z,13.52
2022-08-23T04:50:12.867Z,11.35
2022-08-23T04:53:11.920Z,11.95
2022-08-23T04:55:50.493Z,11.32
2022-08-23T04:58:18.477Z,10.30
2022-08-23T05:00:53.825Z,9.65
2022-08-23T05:03:26.861Z,11.70
2022-08-23T05:05:58.381Z,8.90
2022-08-23T05:08:33.715Z,11.50
2022-08-23T05:11:04.112Z,8.95
2022-08-23T05:13:32.758Z,10.52
2022-08-23T05:16:04.260Z,10.25
2022-08-23T05:18:34.871Z,8.98
2022-08-23T05:21:03.157Z,10.38
2022-08-23T05:23:32.044Z,9.23
2022-08-23T05:26:06.710Z,10.18
2022-08-23T05:28:45.023Z,9.48
2022-08-23T05:31:25.930Z,10.07
2022-08-23T05:33:55.438Z,8.20
2022-08-23T05:36:54.612Z,9.20
2022-08-23T05:39:36.052Z,9.60
2022-08-23T05:42:09.197Z,8.18
2022-08-23T05:44:37.942Z,9.20
2022-08-23T05:47:10.362Z,8.07
2022-08-23T05:49:46.283Z,8.68
2022-08-23T05:52:14.995Z,7.85
2022-08-23T05:54:44.326Z,7.65
2022-08-23T05:57:34.281Z,7.93
2022-08-23T06:00:01.653Z,8.13
2022-08-23T06:02:30.422Z,9.23
2022-08-23T06:04:58.046Z,8.57
2022-08-23T06:07:25.407Z,8.10
2022-08-23T06:09:55.117Z,8.73
2022-08-23T06:12:22.622Z,7.97
2022-08-23T06:14:50.044Z,7.88
2022-08-23T06:17:20.592Z,8.70
2022-08-23T06:19:47.980Z,8.48
2022-08-23T06:25:09.566Z,8.75
2022-08-23T06:27:56.509Z,7.80
2022-08-23T06:30:24.122Z,8.48
2022-08-23T06:32:57.216Z,8.63
2022-08-23T06:35:44.804Z,8.90
2022-08-23T06:38:18.831Z,7.72
2022-08-23T06:43:26.354Z,7.40
2022-08-23T06:46:29.353Z,8.60
2022-08-23T06:49:00.915Z,7.65
2022-08-23T06:51:33.375Z,8.63
2022-08-23T06:54:30.337Z,8.13
2022-08-23T06:57:01.555Z,9.13
2022-08-23T06:59:31.465Z,8.48
2022-08-23T07:02:16.211Z,8.88
2022-08-23T07:04:58.952Z,7.90
2022-08-23T07:07:45.115Z,7.43
2022-08-23T07:12:44.337Z,8.43
2022-08-23T07:15:13.876Z,8.65
2022-08-23T07:17:45.916Z,10.10
2022-08-23T07:20:13.793Z,9.43
2022-08-23T07:22:44.559Z,8.95
2022-08-23T07:25:12.556Z,8.80
2022-08-23T07:27:40.848Z,10.32
2022-08-23T07:30:10.300Z,9.80
2022-08-23T07:32:40.679Z,10.20
2022-08-23T07:35:21.524Z,9.75
2022-08-23T07:37:50.321Z,9.60
2022-08-23T07:40:20.634Z,10.55
2022-08-23T07:42:51.824Z,9.52
2022-08-23T07:45:23.059Z,10.67
2022-08-23T07:47:54.442Z,10.55
2022-08-23T07:50:23.962Z,12.35
2022-08-23T07:52:58.148Z,11.07
2022-08-23T07:55:25.427Z,10.27
2022-08-23T07:58:13.863Z,11.60
2022-08-23T08:00:54.328Z,11.75
2022-08-23T08:03:39.991Z,11.43
2022-08-23T08:06:31.634Z,11.15
2022-08-23T08:09:00.134Z,11.70
2022-08-23T08:11:34.942Z,12.63
2022-08-23T08:14:08.501Z,12.98
2022-08-23T08:16:46.902Z,13.25
2022-08-23T08:19:20.015Z,13.02
2022-08-23T08:22:06.147Z,12.35
2022-08-23T08:24:51.787Z,12.98
2022-08-23T08:27:19.232Z,13.60
2022-08-23T08:29:46.901Z,14.68
2022-08-23T08:32:15.732Z,14.55
2022-08-23T08:34:44.516Z,14.85
2022-08-23T08:37:12.534Z,15.45
2022-08-23T08:39:46.927Z,15.27
2022-08-23T08:42:58.742Z,13.75
2022-08-23T08:45:32.748Z,14.02
2022-08-23T08:48:13.358Z,13.27
2022-08-23T08:50:57.897Z,13.45
2022-08-23T08:53:38.950Z,13.15
2022-08-23T08:56:32.771Z,12.25
2022-08-23T08:59:56.378Z,11.57
2022-08-23T09:02:32.343Z,12.15
2022-08-23T09:05:29.087Z,12.95
2022-08-23T09:08:37.649Z,10.65
2022-08-23T09:11:26.581Z,11.40
2022-08-23T09:14:26.820Z,11.45
2022-08-23T09:17:05.646Z,11.80
2022-08-23T09:19:38.320Z,11.70
2022-08-23T09:22:17.441Z,11.73
2022-08-23T09:24:44.889Z,11.38
2022-08-23T09:27:20.324Z,11.23
2022-08-23T09:30:01.241Z,10.55
2022-08-23T09:32:34.434Z,10.15
2022-08-23T09:35:25.910Z,10.50
2022-08-23T09:38:11.387Z,10.98
2022-08-23T09:40:51.317Z,12.38
2022-08-23T09:43:27.650Z,12.65
2022-08-23T09:46:02.212Z,13.20
2022-08-23T09:48:44.150Z,12.15
2022-08-23T09:51:37.668Z,13.63
2022-08-23T09:54:21.643Z,12.55
2022-08-23T09:59:26.575Z,13.23
2022-08-23T10:02:02.250Z,13.43
2022-08-23T10:04:55.550Z,14.63
2022-08-23T10:07:34.915Z,12.73
2022-08-23T10:10:28.332Z,13.73
2022-08-23T10:12:59.740Z,14.52
2022-08-23T10:15:40.007Z,14.15
2022-08-23T10:18:53.695Z,14.63
2022-08-23T10:21:36.904Z,14.20
2022-08-23T10:24:43.700Z,13.60
2022-08-23T10:27:50.544Z,14.82
2022-08-23T10:30:23.694Z,12.40
2022-08-23T10:33:29.913Z,13.15
2022-08-23T10:36:47.312Z,14.30
2022-08-23T10:39:30.845Z,13.77
2022-08-23T10:42:23.763Z,14.00
2022-08-23T10:45:25.352Z,12.25
2022-08-23T10:48:15.051Z,13.43
2022-08-23T10:51:21.207Z,10.25
2022-08-23T10:54:00.831Z,11.93
2022-08-23T10:56:29.380Z,11.13
2022-08-23T10:59:26.788Z,11.27
2022-08-23T11:02:28.227Z,11.63
2022-08-23T11:05:39.213Z,12.02
2022-08-23T11:08:47.714Z,11.57
2022-08-23T11:12:20.013Z,10.25
2022-08-23T11:14:54.801Z,10.63
2022-08-23T11:17:55.192Z,10.85
2022-08-23T11:20:50.646Z,9.57
2022-08-23T11:23:55.589Z,10.32
2022-08-23T11:26:23.255Z,9.45
2022-08-23T11:28:53.202Z,10.63
2022-08-23T11:31:36.773Z,10.20
2022-08-23T11:34:32.160Z,11.07
2022-08-23T11:37:24.631Z,10.43
2022-08-23T11:39:59.522Z,9.32
2022-08-23T11:42:38.367Z,10.40
2022-08-23T11:45:35.819Z,11.20
2022-08-23T11:48:43.519Z,10.77
2022-08-23T11:51:29.638Z,9.50
2022-08-23T11:54:31.586Z,10.60
2022-08-23T11:57:01.809Z,10.70
2022-08-23T12:00:12.809Z,11.93
2022-08-23T12:03:09.900Z,11.15
2022-08-23T12:06:05.206Z,13.88
2022-08-23T12:08:46.788Z,16.13
2022-08-23T12:11:16.822Z,16.13
2022-08-23T12:16:18.766Z,15.82
2022-08-23T12:18:57.470Z,14.63
2022-08-23T12:21:39.150Z,15.63
2022-08-23T12:24:20.317Z,14.98
2022-08-23T12:27:08.020Z,14.60
2022-08-23T12:30:21.334Z,16.05
2022-08-23T12:33:11.696Z,14.13
2022-08-23T12:35:44.981Z,13.25
2022-08-23T12:38:48.617Z,13.10
2022-08-23T12:41:31.536Z,13.05
2022-08-23T12:44:09.980Z,15.38
2022-08-23T12:46:43.072Z,14.00
2022-08-23T12:49:30.353Z,14.30
2022-08-23T12:52:17.181Z,15.57
2022-08-23T12:54:50.287Z,14.80
2022-08-23T12:57:31.563Z,13.63
2022-08-23T13:00:26.552Z,14.25
2022-08-23T13:03:12.552Z,14.23
2022-08-23T13:06:15.773Z,14.23
2022-08-23T13:09:18.873Z,14.65
2022-08-23T13:11:47.506Z,13.60
2022-08-23T13:14:44.975Z,13.02
2022-08-23T13:17:27.192Z,13.23
2022-08-23T13:20:21.910Z,13.55
2022-08-23T13:23:07.043Z,12.38
2022-08-23T13:25:41.878Z,12.20
2022-08-23T13:28:31.204Z,12.63
2022-08-23T13:31:08.168Z,11.88
2022-08-23T13:33:36.215Z,12.63
2022-08-23T13:36:21.439Z,11.48
2022-08-23T13:38:49.611Z,12.10
2022-08-23T13:41:39.152Z,12.07
2022-08-23T13:44:08.951Z,11.65
2022-08-23T13:46:46.705Z,11.88
2022-08-23T13:49:27.461Z,11.30
2022-08-23T13:52:18.626Z,12.10
2022-08-23T13:54:50.829Z,11.38
2022-08-23T13:57:22.211Z,11.00
2022-08-23T13:59:59.067Z,11.05
2022-08-23T14:02:26.919Z,11.75
2022-08-23T14:04:54.445Z,11.38
2022-08-23T14:07:22.025Z,12.13
2022-08-23T14:09:52.064Z,12.05
2022-08-23T14:12:27.707Z,11.57
2022-08-23T14:14:57.371Z,12.27
2022-08-23T14:17:25.798Z,11.45
2022-08-23T14:22:41.210Z,12.30
2022-08-23T14:25:11.074Z,12.25
2022-08-23T14:27:44.771Z,12.75
2022-08-23T14:30:46.070Z,12.50
2022-08-23T14:33:13.774Z,12.48
2022-08-23T14:35:42.115Z,13.55
2022-08-23T14:38:10.386Z,12.60
2022-08-23T14:40:37.776Z,12.25
2022-08-23T14:43:05.906Z,12.55
2022-08-23T14:45:33.402Z,13.02
2022-08-23T14:48:00.961Z,12.60
2022-08-23T14:50:28.734Z,14.52
2022-08-23T14:52:56.509Z,14.40
2022-08-23T14:55:25.201Z,14.50
2022-08-23T14:57:52.871Z,15.98
2022-08-23T15:00:20.353Z,28.08
2022-08-23T15:02:50.142Z,21.92
2022-08-23T15:05:18.385Z,27.35
2022-08-23T15:07:46.058Z,19.67
2022-08-23T15:13:19.550Z,18.70
2022-08-23T15:15:49.891Z,14.07
2022-08-23T15:18:18.203Z,15.70
2022-08-23T15:20:46.098Z,38.10
2022-08-23T15:23:13.996Z,17.42
2022-08-23T15:25:43.939Z,18.85
2022-08-23T15:28:15.969Z,25.65
2022-08-23T15:30:44.465Z,17.58
2022-08-23T15:33:12.735Z,13.95
2022-08-23T15:35:47.587Z,14.27
2022-08-23T15:38:17.932Z,14.05
2022-08-23T15:40:45.983Z,12.68
2022-08-23T15:43:13.443Z,13.98
2022-08-23T15:45:41.262Z,21.20
2022-08-23T15:48:29.746Z,17.63
2022-08-23T15:50:59.369Z,16.10
2022-08-23T15:53:27.345Z,15.25
2022-08-23T15:55:54.856Z,16.05
2022-08-23T15:58:26.217Z,16.00
2022-08-23T16:00:54.401Z,15.35
2022-08-23T16:03:22.918Z,14.45
2022-08-23T16:05:53.760Z,15.25
2022-08-23T16:08:29.552Z,16.00
2022-08-23T16:10:58.628Z,16.77
2022-08-23T16:13:27.147Z,18.67
2022-08-23T16:15:54.912Z,17.98
2022-08-23T16:18:22.266Z,17.33
2022-08-23T16:20:54.201Z,18.38
2022-08-23T16:23:23.190Z,16.65
2022-08-23T16:25:51.634Z,17.60
2022-08-23T16:28:19.129Z,16.45
2022-08-23T16:30:46.780Z,17.02
2022-08-23T16:33:14.193Z,20.05
2022-08-23T16:35:41.585Z,19.52
2022-08-23T16:38:09.623Z,22.35
2022-08-23T16:40:37.086Z,18.88
2022-08-23T16:43:04.540Z,20.05
2022-08-23T16:45:32.160Z,17.67
2022-08-23T16:48:00.553Z,18.35
2022-08-23T16:50:28.289Z,20.30
2022-08-23T16:52:55.701Z,24.05
2022-08-23T16:55:23.318Z,20.38
2022-08-23T16:57:50.853Z,19.23
2022-08-23T17:00:18.325Z,19.15
2022-08-23T17:02:46.164Z,20.38
2022-08-23T17:05:17.669Z,19.48
2022-08-23T17:07:46.104Z,19.50
2022-08-23T17:10:17.056Z,19.77
2022-08-23T17:12:47.408Z,19.45
2022-08-23T17:17:49.207Z,20.10
2022-08-23T17:20:18.773Z,20.30
2022-08-23T17:22:47.281Z,20.15
2022-08-23T17:25:15.607Z,20.05
2022-08-23T17:27:46.371Z,20.83
2022-08-23T17:30:19.911Z,23.77
2022-08-23T17:32:48.241Z,25.15
2022-08-23T17:35:20.915Z,23.40
2022-08-23T17:37:48.619Z,24.48
2022-08-23T17:40:23.397Z,25.73
2022-08-23T17:42:50.934Z,25.55
2022-08-23T17:45:19.162Z,25.40
2022-08-23T17:47:47.157Z,25.25
2022-08-23T17:50:17.071Z,25.90
2022-08-23T17:52:45.503Z,25.38
2022-08-23T17:55:18.344Z,25.63
2022-08-23T17:57:48.436Z,25.25
2022-08-23T18:00:18.939Z,25.65
2022-08-23T18:02:46.265Z,25.73
2022-08-23T18:05:14.021Z,26.88
2022-08-23T18:07:41.466Z,28.42
2022-08-23T18:10:12.086Z,26.08
2022-08-23T18:12:40.967Z,26.15
2022-08-23T18:15:10.725Z,24.88
2022-08-23T18:17:39.620Z,25.77
2022-08-23T18:20:10.386Z,23.60
2022-08-23T18:22:39.991Z,27.95
2022-08-23T18:25:10.278Z,26.55
2022-08-23T18:27:56.194Z,25.35
2022-08-23T18:30:24.184Z,24.50
2022-08-23T18:32:51.660Z,26.42
2022-08-23T18:35:19.938Z,25.20
2022-08-23T18:37:47.560Z,24.58
2022-08-23T18:40:15.203Z,24.67
2022-08-23T18:42:42.617Z,26.50
2022-08-23T18:45:10.468Z,25.85
2022-08-23T18:47:38.264Z,27.83
2022-08-23T18:50:09.278Z,26.40
2022-08-23T18:55:06.749Z,27.67
2022-08-23T18:57:34.522Z,28.15
2022-08-23T19:00:02.884Z,28.52
2022-08-23T19:02:30.594Z,31.05
2022-08-23T19:04:58.302Z,29.15
2022-08-23T19:07:26.019Z,28.45
2022-08-23T19:09:53.725Z,28.05
2022-08-23T19:12:22.145Z,31.13
2022-08-23T19:14:49.857Z,28.40
2022-08-23T19:17:17.159Z,30.13
2022-08-23T19:19:44.471Z,28.10
2022-08-23T19:22:12.760Z,29.08
2022-08-23T19:24:40.792Z,30.15
2022-08-23T19:27:09.086Z,28.75
2022-08-23T19:29:36.566Z,30.75
2022-08-23T19:32:04.748Z,29.52
2022-08-23T19:34:32.246Z,29.73
2022-08-23T19:37:01.423Z,29.27
2022-08-23T19:39:30.016Z,29.33
2022-08-23T19:41:58.204Z,28.17
2022-08-23T19:44:25.616Z,29.92
2022-08-23T19:46:54.995Z,29.38
2022-08-23T19:49:23.374Z,29.50
2022-08-23T19:51:50.718Z,29.77
2022-08-23T19:54:18.293Z,30.58
2022-08-23T19:56:57.716Z,28.75
2022-08-23T19:59:33.147Z,28.65
2022-08-23T20:02:01.515Z,29.63
2022-08-23T20:04:33.026Z,26.20
2022-08-23T20:07:02.558Z,26.98
2022-08-23T20:09:32.299Z,28.47
2022-08-23T20:12:01.431Z,27.48
2022-08-23T20:14:31.168Z,25.80
2022-08-23T20:16:58.929Z,26.73
2022-08-23T20:19:26.862Z,26.10
2022-08-23T20:22:16.199Z,26.05
2022-08-23T20:24:51.269Z,22.77
2022-08-23T20:27:29.014Z,24.10
2022-08-23T20:30:01.512Z,24.33
2022-08-23T20:34:57.693Z,22.35
2022-08-23T20:37:25.531Z,23.48
2022-08-23T20:39:53.231Z,23.13
2022-08-23T20:42:20.606Z,23.45
2022-08-23T20:44:47.865Z,22.83
2022-08-23T20:47:15.534Z,23.17
2022-08-23T20:49:42.998Z,23.45
2022-08-23T20:52:10.333Z,20.67
2022-08-23T20:54:38.415Z,24.60
2022-08-23T20:57:05.959Z,24.40
2022-08-23T20:59:33.127Z,22.52
2022-08-23T21:02:00.497Z,23.25
2022-08-23T21:04:30.336Z,23.65
2022-08-23T21:06:58.612Z,21.92
2022-08-23T21:09:29.270Z,24.20
2022-08-23T21:11:57.641Z,22.42
2022-08-23T21:14:25.001Z,22.38
2022-08-23T21:16:52.250Z,23.65
2022-08-23T21:19:19.684Z,21.58
2022-08-23T21:21:47.097Z,24.15
2022-08-23T21:24:15.288Z,25.65
2022-08-23T21:26:42.719Z,22.00
2022-08-23T21:29:10.820Z,22.73
2022-08-23T21:31:39.729Z,22.17
2022-08-23T21:34:08.333Z,22.60
2022-08-23T21:36:36.645Z,22.42
2022-08-23T21:39:05.355Z,22.45
2022-08-23T21:41:35.920Z,22.42
2022-08-23T21:44:08.467Z,20.70
2022-08-23T21:46:36.127Z,21.08
2022-08-23T21:49:04.365Z,20.13
2022-08-23T21:51:32.011Z,18.58
2022-08-23T21:54:02.965Z,16.42
2022-08-23T21:56:31.317Z,15.48
2022-08-23T21:59:04.430Z,14.85
2022-08-23T22:01:35.626Z,16.27
2022-08-23T22:04:07.611Z,15.52
2022-08-23T22:06:38.026Z,16.05
2022-08-23T22:11:40.685Z,13.65
2022-08-23T22:14:21.620Z,14.52
2022-08-23T22:16:49.680Z,14.98
2022-08-23T22:19:22.715Z,12.82
2022-08-23T22:21:52.588Z,14.00
2022-08-23T22:24:25.262Z,14.25
2022-08-23T22:26:55.245Z,13.90
2022-08-23T22:29:23.396Z,13.68
2022-08-23T22:31:50.938Z,13.15
2022-08-23T22:34:18.225Z,13.60
2022-08-23T22:36:46.277Z,12.85
2022-08-23T22:39:19.694Z,12.23
2022-08-23T22:41:47.145Z,13.13
2022-08-23T22:44:14.573Z,11.60
2022-08-23T22:46:43.179Z,12.73
2022-08-23T22:49:10.648Z,12.70
2022-08-23T22:51:38.745Z,12.35
2022-08-23T22:54:11.311Z,11.25
2022-08-23T22:56:51.032Z,12.45
2022-08-23T22:59:21.918Z,12.45
2022-08-23T23:01:58.290Z,12.95
2022-08-23T23:04:27.597Z,13.07
2022-08-23T23:06:56.166Z,13.10
2022-08-23T23:09:24.710Z,13.68
2022-08-23T23:11:53.149Z,13.43
2022-08-23T23:14:21.752Z,14.02
2022-08-23T23:16:50.072Z,14.23
2022-08-23T23:19:36.893Z,14.93
2022-08-23T23:22:06.628Z,13.35
2022-08-23T23:24:38.354Z,14.02
2022-08-23T23:27:06.406Z,13.05
2022-08-23T23:29:33.964Z,13.93
2022-08-23T23:32:01.450Z,14.88
2022-08-23T23:34:30.171Z,15.90
2022-08-23T23:36:58.584Z,15.65
2022-08-23T23:39:27.931Z,14.38
2022-08-23T23:41:55.920Z,14.60
2022-08-23T23:44:29.918Z,15.98
2022-08-23T23:47:01.588Z,17.52
2022-08-23T23:49:32.303Z,18.63
2022-08-23T23:52:04.721Z,20.23
2022-08-23T23:54:33.929Z,19.17
2022-08-23T23:57:01.949Z,16.58
2022-08-23T23:59:29.348Z,20.00
